Bei Facebook empfehlenBei Twitter postenGoogle plusPinterest

Das Wetter im Erzgebirge am 23.04.2016

Wetter und Klima am 23.04.2016 Holzhau im Erzgebirge (630m ü.NN)
Letzte gemessene Temperatur und Uhrzeit der Messung23:45:00 Uhr-0.20 °C
Temperatur (Maximum / Höchstwert) und Uhrzeit der Messung10:45:00 Uhr9.60 °C
Temperatur (Minimum / Tiefstwert) und Uhrzeit der Messung02:30:00-1.60 °C
Errechneter Absolutwert der Temperaturschwankungen zwischen Tmin und Tmax des Tages11.20 K
Errechnete Tagesmitteltemperatur2.32083 °C
Gesamt - Niederschlag des Tages (in flüssiger Form)1.55 Liter / m²
Luftdruck (Maximum / Höchstwert) und Zeitpunkt der Messung00:00:00 Uhr1009.20 hPa
Luftdruck (Minimum / Tiefstwert) und Zeitpunkt der Messung18:00:00 Uhr1003.40 hPa
Errechneter Absolutwert der Luftdruckschwankungen des Tages5.80 hPa
Höchste gemessene Windgeschwindigkeit und Uhrzeit der Messung23:45:00 Uhr0.00 km/h
Errechnete Windhäufigkeit in Relation zu den Messwerten des Tages0.00000 %
Niedrigste Windkühle (Windchill) und Zeitpunkt der Messung02:30:00 Uhr-1.60 °C
Taupunkt (Maximum / Höchstwert) und Uhrzeit der Messung10:15:00 Uhr4.10 °C
Taupunkt (Minimum / Tiefstwert) und Uhrzeit der Messung01:15:00-4.40 °C
Anzahl der automatisch eingelesenen Messwerte 96

Detaillierte Wetter- und Klima- Messwerte für den 23.04.2016 in Holzhau im Erzgebirge (630m ü.NN)
ZeitTemperaturLuftdruckRel. LuftfeuchteWindWindrichtungWindchillTaupunktNiederschlag l/m²
23:45:00-0.20 °C1004.30 hPa92.00 %-1.50 °C1.55
23:30:00-0.10 °C1004.10 hPa92.00 %-1.40 °C1.55
23:15:000.10 °C1004.10 hPa92.00 %-1.00 °C1.55
23:00:000.10 °C1004.20 hPa92.00 %-1.00 °C1.55
22:45:00-0.10 °C1004.10 hPa92.00 %-1.40 °C1.55
22:30:00-0.20 °C1004.20 hPa91.00 %-1.60 °C1.55
22:15:00-0.40 °C1004.00 hPa91.00 %-1.80 °C1.55
22:00:00-0.20 °C1004.00 hPa91.00 %-1.60 °C1.55
21:45:00-0.10 °C1004.00 hPa91.00 %-1.50 °C1.55
21:30:000.10 °C1004.00 hPa91.00 %-1.20 °C1.55
21:15:000.10 °C1004.10 hPa91.00 %-1.20 °C1.55
21:00:000.10 °C1004.10 hPa91.00 %-1.20 °C1.55
20:45:000.10 °C1004.10 hPa90.00 %-1.30 °C1.55
20:30:000.10 °C1003.90 hPa90.00 %-1.30 °C1.55
20:15:000.10 °C1003.90 hPa90.00 %-1.30 °C1.55
20:00:000.10 °C1004.00 hPa91.00 %-1.20 °C1.55
19:45:000.20 °C1004.10 hPa90.00 %-1.20 °C1.55
19:30:000.30 °C1004.10 hPa90.00 %-1.10 °C1.55
19:15:000.30 °C1004.00 hPa90.00 %-1.10 °C1.55
19:00:000.30 °C1003.60 hPa89.00 %-1.30 °C1.55
18:45:000.30 °C1003.60 hPa89.00 %-1.30 °C1.55
18:30:000.40 °C1003.50 hPa89.00 %-1.20 °C1.55
18:15:000.40 °C1003.50 hPa89.00 %-1.20 °C1.55
18:00:000.50 °C1003.40 hPa88.00 %-1.30 °C1.55
17:45:000.70 °C1003.60 hPa88.00 %-1.10 °C1.55
17:30:000.90 °C1003.40 hPa87.00 %-1.00 °C1.55
17:15:001.30 °C1003.50 hPa87.00 %-0.60 °C1.55
17:00:001.50 °C1003.40 hPa87.00 %-0.40 °C1.55
16:45:001.80 °C1003.40 hPa87.00 %-0.10 °C1.55
16:30:001.90 °C1003.50 hPa86.00 %-0.20 °C1.55
16:15:002.20 °C1003.50 hPa86.00 %0.10 °C1.55
16:00:002.30 °C1003.40 hPa85.00 %0.00 °C1.55
15:45:002.30 °C1003.60 hPa84.00 %-0.10 °C1.03
15:30:002.20 °C1003.60 hPa83.00 %-0.40 °C1.03
15:15:002.50 °C1003.70 hPa82.00 %-0.30 °C1.03
15:00:003.00 °C1003.70 hPa81.00 %0.10 °C0.51
14:45:003.80 °C1003.80 hPa79.00 %0.50 °C 
14:30:004.40 °C1003.70 hPa78.00 %0.90 °C 
14:15:004.90 °C1003.60 hPa76.00 %1.00 °C 
14:00:005.00 °C1003.90 hPa75.00 %0.90 °C 
13:45:005.40 °C1004.00 hPa73.00 %1.00 °C 
13:30:005.90 °C1004.10 hPa71.00 %1.10 °C 
13:15:006.60 °C1004.10 hPa70.00 %1.50 °C 
13:00:007.30 °C1004.30 hPa68.00 %1.80 °C 
12:45:007.80 °C1004.20 hPa68.00 %2.30 °C 
12:30:008.10 °C1004.50 hPa66.00 %2.10 °C 
12:15:009.10 °C1004.50 hPa66.00 %3.10 °C 
12:00:009.00 °C1004.60 hPa66.00 %3.00 °C 
11:45:009.40 °C1005.00 hPa67.00 %3.60 °C 
11:30:009.40 °C1005.00 hPa68.00 %3.80 °C 
11:15:009.10 °C1004.90 hPa67.00 %3.30 °C 
11:00:009.40 °C1005.20 hPa67.00 %3.60 °C 
10:45:009.60 °C1005.30 hPa68.00 %4.00 °C 
10:30:009.40 °C1005.20 hPa69.00 %4.00 °C 
10:15:009.30 °C1005.30 hPa70.00 %4.10 °C 
10:00:008.60 °C1005.30 hPa70.00 %3.40 °C 
09:45:008.70 °C1005.20 hPa70.00 %3.50 °C 
09:30:008.30 °C1005.30 hPa72.00 %3.60 °C 
09:15:007.80 °C1005.40 hPa74.00 %3.50 °C 
09:00:007.10 °C1005.40 hPa77.00 %3.30 °C 
08:45:006.40 °C1005.60 hPa78.00 %2.90 °C 
08:30:005.80 °C1005.80 hPa79.00 %2.40 °C 
08:15:005.40 °C1006.00 hPa81.00 %2.40 °C 
08:00:004.80 °C1006.10 hPa81.00 %1.80 °C 
07:45:004.50 °C1006.30 hPa83.00 %1.90 °C 
07:30:003.90 °C1006.20 hPa85.00 %1.60 °C 
07:15:003.10 °C1006.30 hPa86.00 %1.00 °C 
07:00:002.50 °C1006.30 hPa86.00 %0.40 °C 
06:45:001.90 °C1006.40 hPa87.00 %0.00 °C 
06:30:001.30 °C1006.30 hPa87.00 %-0.60 °C 
06:15:000.70 °C1006.20 hPa87.00 %-1.20 °C 
06:00:000.20 °C1006.30 hPa87.00 %-1.70 °C 
05:45:00-0.20 °C1006.30 hPa86.00 %-2.50 °C 
05:30:00-0.30 °C1006.40 hPa86.00 %-2.60 °C 
05:15:00-0.40 °C1006.30 hPa86.00 %-2.70 °C 
05:00:00-0.50 °C1006.50 hPa86.00 %-2.80 °C 
04:45:00-0.70 °C1006.50 hPa86.00 %-3.00 °C 
04:30:00-0.90 °C1006.70 hPa86.00 %-3.20 °C 
04:15:00-0.80 °C1006.80 hPa86.00 %-3.10 °C 
04:00:00-0.70 °C1006.90 hPa86.00 %-3.00 °C 
03:45:00-1.00 °C1007.00 hPa86.00 %-3.30 °C 
03:30:00-1.20 °C1007.10 hPa85.00 %-3.70 °C 
03:15:00-1.20 °C1007.20 hPa85.00 %-3.70 °C 
03:00:00-1.30 °C1007.40 hPa85.00 %-3.80 °C 
02:45:00-1.40 °C1007.50 hPa85.00 %-3.80 °C 
02:30:00-1.60 °C1007.70 hPa85.00 %-4.00 °C 
02:15:00-1.60 °C1008.00 hPa84.00 %-4.20 °C 
02:00:00-1.50 °C1008.10 hPa84.00 %-4.10 °C 
01:45:00-1.40 °C1008.20 hPa84.00 %-4.00 °C 
01:30:00-1.50 °C1008.40 hPa84.00 %-4.10 °C 
01:15:00-1.60 °C1008.50 hPa83.00 %-4.40 °C 
01:00:00-1.60 °C1008.70 hPa83.00 %-4.40 °C 
00:45:00-1.40 °C1008.80 hPa83.00 %-4.20 °C 
00:30:00-1.30 °C1009.00 hPa82.00 %-4.30 °C 
00:15:00-1.00 °C1009.10 hPa82.00 %-4.00 °C 
00:00:00-0.90 °C1009.20 hPa81.00 %-4.10 °C 

Permanenter Link zu dieser Seite: Wetter im Erzgebirge am 23.04.2016
Performance-Info: Die Erstellung der Seite / Statistik(en) / Tabelle(n) erforderte 5 Datenbankserver-Abfrage(n) und dauerte 123 Millisekunden. (Dieser Messwert ist von der Gesamt-Auslastung des Servers abhängig.)
Erzgebirge - Wetter | Erzgebirge - Wetter (Mobilgeräte) | Komplette Klimadatenbank